Time;durP1;ratioP1;P1;durP2;ratioP2;P2;SDS_P1;SDS_P2;PMS_P1;PMS_P2;Temp;Humidity;BMP_temperature;BMP_pressure;BME280_temperature;BME280_humidity;BME280_pressure;Samples;Min_cycle;Max_cycle;Signal;HPM_P1;HPM_P2
2022/06/02 00:02:41;;;;;;;4.50;2.95;;;11.40;99.90;;;;;;5074737;28;20055;-84
2022/06/02 00:05:28;;;;;;;7.93;3.13;;;11.30;99.90;;;;;;5074767;28;20115;-83
2022/06/02 00:08:19;;;;;;;6.20;2.80;;;11.30;99.90;;;;;;5091675;28;20039;-84
2022/06/02 00:11:04;;;;;;;5.95;3.22;;;11.30;99.90;;;;;;5074884;28;20119;-83
2022/06/02 00:14:10;;;;;;;5.70;3.53;;;11.30;99.90;;;;;;5091216;28;20043;-84
2022/06/02 00:16:57;;;;;;;4.53;3.13;;;11.30;99.90;;;;;;5091623;28;20076;-83
2022/06/02 00:19:41;;;;;;;4.18;2.92;;;11.30;99.90;;;;;;5074719;28;20491;-83
2022/06/02 00:22:22;;;;;;;5.25;3.33;;;11.20;99.90;;;;;;5074962;28;20387;-84
2022/06/02 00:25:10;;;;;;;7.13;3.28;;;11.10;99.90;;;;;;5091293;28;20032;-84
2022/06/02 00:27:42;;;;;;;11.75;3.80;;;11.00;99.90;;;;;;5074082;28;20043;-83
2022/06/02 00:30:50;;;;;;;7.15;3.47;;;10.90;99.90;;;;;;5074190;28;20067;-84
2022/06/02 00:33:23;;;;;;;4.40;3.30;;;10.90;99.90;;;;;;5003779;28;20099;-83
2022/06/02 00:36:01;;;;;;;8.05;3.88;;;10.80;99.90;;;;;;5074063;28;20090;-83
2022/06/02 00:38:31;;;;;;;9.40;3.22;;;10.70;99.90;;;;;;5074263;28;20032;-83
2022/06/02 00:41:04;;;;;;;5.32;3.38;;;10.60;99.90;;;;;;5074457;28;20044;-83
2022/06/02 00:43:30;;;;;;;8.98;5.22;;;10.60;99.90;;;;;;5091158;28;20503;-83
2022/06/02 00:46:14;;;;;;;4.63;3.67;;;10.50;99.90;;;;;;5090624;28;20128;-84
2022/06/02 00:49:19;;;;;;;4.22;3.33;;;10.40;99.90;;;;;;5091198;28;20032;-84
2022/06/02 00:51:50;;;;;;;6.72;3.90;;;10.40;99.90;;;;;;5073715;28;20655;-84
2022/06/02 00:57:55;;;;;;;4.65;4.03;;;10.30;99.90;;;;;;5090754;28;20028;-83
2022/06/02 01:00:24;;;;;;;4.90;4.40;;;10.30;99.90;;;;;;5073733;28;20035;-83
2022/06/02 01:03:07;;;;;;;6.38;4.10;;;10.20;99.90;;;;;;5073654;28;20101;-83
2022/06/02 01:06:01;;;;;;;5.25;3.95;;;10.20;99.90;;;;;;5073587;28;20044;-84
2022/06/02 01:08:51;;;;;;;4.95;3.60;;;10.10;99.90;;;;;;5073999;28;20063;-84
2022/06/02 01:11:46;;;;;;;8.75;4.28;;;10.00;99.90;;;;;;5073066;28;20042;-83
2022/06/02 01:14:38;;;;;;;5.75;3.70;;;10.00;99.90;;;;;;5044877;28;20457;-83
2022/06/02 01:17:24;;;;;;;;;;;9.90;99.90;;;;;;5063262;28;20556;-83
2022/06/02 01:20:14;;;;;;;5.03;3.78;;;9.80;99.90;;;;;;5073797;28;19916;-83
2022/06/02 01:23:16;;;;;;;6.70;3.60;;;9.70;99.90;;;;;;5074176;28;20487;-83
2022/06/02 01:25:59;;;;;;;6.75;3.97;;;9.60;99.90;;;;;;5073795;28;20479;-84
2022/06/02 01:28:32;;;;;;;6.78;3.85;;;9.50;99.90;;;;;;5091094;28;20377;-84
2022/06/02 01:31:21;;;;;;;4.53;3.88;;;9.40;99.90;;;;;;5073968;28;20043;-83
2022/06/02 01:34:11;;;;;;;4.85;3.90;;;9.30;99.90;;;;;;5073670;28;20024;-83
2022/06/02 01:36:41;;;;;;;4.70;3.83;;;9.20;99.90;;;;;;5073358;28;20391;-84
2022/06/02 01:39:30;;;;;;;7.05;4.55;;;9.10;99.90;;;;;;5073571;28;20113;-83
2022/06/02 01:42:01;;;;;;;6.97;4.80;;;9.00;99.90;;;;;;5090975;28;20092;-84
2022/06/02 01:44:45;;;;;;;8.07;4.00;;;9.00;99.90;;;;;;5090890;28;20035;-84
2022/06/02 01:47:28;;;;;;;5.97;4.63;;;8.90;99.90;;;;;;5089859;28;20070;-84
2022/06/02 01:50:06;;;;;;;8.57;4.82;;;8.80;99.90;;;;;;5073482;28;20036;-84
2022/06/02 01:52:51;;;;;;;6.03;4.50;;;8.70;99.90;;;;;;5073414;28;20082;-83
2022/06/02 01:55:41;;;;;;;6.90;5.30;;;8.50;99.90;;;;;;5092580;28;20032;-84
2022/06/02 01:58:25;;;;;;;6.50;5.45;;;8.50;99.90;;;;;;5076741;28;20039;-83
2022/06/02 02:00:59;;;;;;;8.95;5.50;;;8.40;99.90;;;;;;5094146;28;20040;-84
2022/06/02 02:03:30;;;;;;;8.63;6.38;;;8.40;99.90;;;;;;5076885;28;20407;-83
2022/06/02 02:06:16;;;;;;;9.20;5.40;;;8.20;99.90;;;;;;5076730;28;20032;-84
2022/06/02 02:08:42;;;;;;;10.57;6.63;;;8.10;99.90;;;;;;5077072;28;20181;-84
2022/06/02 02:11:40;;;;;;;7.65;5.88;;;7.90;99.90;;;;;;5076852;28;20803;-84
2022/06/02 02:14:28;;;;;;;6.18;5.55;;;7.80;99.90;;;;;;5094052;28;20110;-84
2022/06/02 02:17:05;;;;;;;7.55;6.50;;;7.60;99.90;;;;;;5076476;28;20035;-83
2022/06/02 02:19:50;;;;;;;7.63;5.72;;;7.50;99.90;;;;;;5077100;28;20032;-83
2022/06/02 02:22:18;;;;;;;8.15;6.50;;;7.40;99.90;;;;;;5093831;28;20471;-84
2022/06/02 02:24:59;;;;;;;6.35;5.25;;;7.40;99.90;;;;;;5093202;28;20529;-84
2022/06/02 02:28:03;;;;;;;6.82;5.25;;;7.40;99.90;;;;;;5076781;28;20039;-83
2022/06/02 02:30:37;;;;;;;9.93;5.88;;;7.20;99.90;;;;;;5094716;28;20046;-84
2022/06/02 02:33:17;;;;;;;8.57;6.40;;;7.20;99.90;;;;;;5093667;28;20096;-83
2022/06/02 02:35:56;;;;;;;8.73;6.55;;;7.00;99.90;;;;;;5093353;28;20062;-84
2022/06/02 02:42:51;;;;;;;11.65;6.60;;;6.70;99.90;;;;;;5094671;28;20047;-84
2022/06/02 02:45:36;;;;;;;14.52;7.20;;;6.60;99.90;;;;;;5092738;28;20032;-83
2022/06/02 02:48:10;;;;;;;6.75;6.05;;;6.60;99.90;;;;;;5076024;28;20119;-84
2022/06/02 02:50:46;;;;;;;9.57;6.72;;;6.50;99.90;;;;;;5076219;28;20031;-84
2022/06/02 02:53:18;;;;;;;8.13;7.13;;;6.50;99.90;;;;;;5092832;28;20064;-83
2022/06/02 02:55:53;;;;;;;;;;;6.40;99.90;;;;;;5093125;28;20454;-83
2022/06/02 02:58:40;;;;;;;9.10;6.07;;;6.30;99.90;;;;;;5076133;28;19915;-84
2022/06/02 03:01:18;;;;;;;9.77;6.72;;;6.30;99.90;;;;;;5075493;28;20040;-83
2022/06/02 03:04:01;;;;;;;10.10;6.80;;;6.30;99.90;;;;;;5075443;28;20487;-84
2022/06/02 03:06:31;;;;;;;11.52;7.47;;;6.20;99.90;;;;;;5091293;28;20032;-84
2022/06/02 03:09:05;;;;;;;9.65;7.60;;;6.10;99.90;;;;;;5092143;28;20034;-84
2022/06/02 03:11:39;;;;;;;11.63;7.55;;;6.10;99.90;;;;;;5075519;28;20028;-84
2022/06/02 03:14:31;;;;;;;12.00;7.78;;;6.10;99.90;;;;;;5075742;28;20028;-84
2022/06/02 03:17:12;;;;;;;8.85;7.95;;;6.10;99.90;;;;;;5075386;28;20096;-84
2022/06/02 03:19:45;;;;;;;11.45;7.97;;;6.00;99.90;;;;;;5075804;28;20019;-83
2022/06/02 03:22:29;;;;;;;15.60;8.25;;;6.00;99.90;;;;;;5075575;28;20065;-83
2022/06/02 03:25:08;;;;;;;10.20;7.40;;;6.10;99.90;;;;;;5075835;28;20036;-81
2022/06/02 03:28:11;;;;;;;7.32;6.43;;;6.10;99.90;;;;;;5092346;28;20035;-82
2022/06/02 03:31:01;;;;;;;9.63;6.20;;;6.10;99.90;;;;;;5091921;28;20485;-82
2022/06/02 03:34:06;;;;;;;8.98;7.25;;;6.10;99.90;;;;;;5091768;28;20032;-81
2022/06/02 03:36:56;;;;;;;9.80;7.07;;;6.10;99.90;;;;;;5074076;28;20039;-81
2022/06/02 03:39:34;;;;;;;14.13;6.97;;;6.00;99.90;;;;;;5064879;28;20028;-82
2022/06/02 03:42:32;;;;;;;8.93;7.43;;;6.00;99.90;;;;;;5092204;28;20177;-81
2022/06/02 03:45:01;;;;;;;10.10;7.45;;;5.90;99.90;;;;;;5074813;28;20040;-82
2022/06/02 03:47:32;;;;;;;12.35;7.93;;;5.90;99.90;;;;;;5092921;28;20031;-82
2022/06/02 03:50:20;;;;;;;10.55;7.30;;;6.10;99.90;;;;;;5091450;28;20139;-82
2022/06/02 03:53:15;;;;;;;10.68;7.15;;;6.10;99.90;;;;;;5091785;28;20082;-82
2022/06/02 03:55:51;;;;;;;10.65;7.38;;;6.10;99.90;;;;;;5091591;28;20032;-82
2022/06/02 03:58:32;;;;;;;11.38;7.43;;;6.00;99.90;;;;;;5074655;28;20024;-82
2022/06/02 04:01:05;;;;;;;14.53;7.70;;;6.00;99.90;;;;;;5091497;28;20491;-81
2022/06/02 04:03:34;;;;;;;12.57;7.50;;;6.00;99.90;;;;;;5074612;28;20859;-82
2022/06/02 04:06:25;;;;;;;14.85;7.50;;;5.90;99.90;;;;;;5074393;28;20123;-82
2022/06/02 04:09:04;;;;;;;;;;;6.00;99.90;;;;;;5092136;28;20060;-82
2022/06/02 04:14:48;;;;;;;12.88;7.45;;;6.20;99.90;;;;;;5090720;28;20146;-82
2022/06/02 04:17:26;;;;;;;9.63;7.00;;;6.30;99.90;;;;;;5090614;28;20035;-81
2022/06/02 04:20:35;;;;;;;10.00;7.50;;;6.30;99.90;;;;;;5074199;28;20545;-81
2022/06/02 04:23:38;;;;;;;10.13;7.50;;;6.30;99.90;;;;;;5074213;28;20032;-81
2022/06/02 04:26:13;;;;;;;11.30;7.05;;;6.40;99.90;;;;;;5073960;28;20036;-82
2022/06/02 04:28:57;;;;;;;11.35;7.25;;;6.50;99.90;;;;;;5091204;28;20046;-82
2022/06/02 04:31:53;;;;;;;8.98;7.28;;;6.60;99.90;;;;;;5090580;28;20043;-82
2022/06/02 04:34:31;;;;;;;10.75;6.80;;;6.80;99.90;;;;;;5090676;28;20456;-81
2022/06/02 04:37:35;;;;;;;11.55;7.65;;;7.00;99.90;;;;;;5090821;28;20043;-82
2022/06/02 04:40:16;;;;;;;10.77;7.80;;;7.10;99.90;;;;;;5036561;28;20042;-82
2022/06/02 04:42:57;;;;;;;9.95;7.22;;;7.30;99.90;;;;;;5090469;28;20074;-82
2022/06/02 04:45:28;;;;;;;11.23;7.20;;;7.50;99.90;;;;;;5090094;28;20517;-82
2022/06/02 04:47:58;;;;;;;9.40;6.13;;;7.70;99.90;;;;;;5073694;28;20483;-82
2022/06/02 04:50:51;;;;;;;8.48;6.97;;;7.80;99.90;;;;;;5073484;28;20035;-82
2022/06/02 04:53:25;;;;;;;12.40;7.15;;;7.90;99.90;;;;;;5072856;28;20475;-82
2022/06/02 04:56:00;;;;;;;7.85;6.72;;;8.10;99.90;;;;;;5091702;28;20119;-82
2022/06/02 04:58:56;;;;;;;8.82;7.18;;;8.30;99.90;;;;;;5090398;28;20073;-82
2022/06/02 05:02:02;;;;;;;6.72;5.72;;;8.50;99.90;;;;;;5091065;28;20816;-82
2022/06/02 05:04:33;;;;;;;14.10;6.20;;;8.80;99.90;;;;;;5073960;28;20684;-82
2022/06/02 05:07:20;;;;;;;8.13;6.50;;;9.00;99.90;;;;;;5090268;28;20032;-82
2022/06/02 05:09:58;;;;;;;7.38;6.18;;;9.10;99.90;;;;;;5090781;28;20069;-82
2022/06/02 05:12:34;;;;;;;12.77;5.82;;;9.30;99.90;;;;;;5073837;28;20487;-82
2022/06/02 05:15:19;;;;;;;5.40;4.75;;;9.40;99.90;;;;;;5090725;28;20031;-82
2022/06/02 05:18:23;;;;;;;8.00;5.70;;;9.60;99.90;;;;;;5090626;28;20106;-82
2022/06/02 05:21:21;;;;;;;10.70;5.28;;;9.80;99.90;;;;;;5091858;28;20035;-82
2022/06/02 05:23:47;;;;;;;6.68;5.00;;;9.90;99.90;;;;;;5090783;28;20071;-82
2022/06/02 05:26:31;;;;;;;14.52;5.55;;;9.90;99.90;;;;;;5089875;28;20067;-82
2022/06/02 05:28:58;;;;;;;7.68;5.10;;;10.10;99.90;;;;;;5073480;28;20059;-82
2022/06/02 05:31:59;;;;;;;5.35;4.10;;;10.30;99.90;;;;;;5094255;28;20476;-82
2022/06/02 05:34:53;;;;;;;7.75;5.05;;;10.40;99.90;;;;;;5077501;28;20047;-82
2022/06/02 05:37:44;;;;;;;6.35;4.28;;;10.60;99.90;;;;;;5094215;28;20025;-81
2022/06/02 05:40:26;;;;;;;5.75;5.05;;;10.70;99.90;;;;;;5077149;28;20032;-82
2022/06/02 05:42:58;;;;;;;;;;;10.80;99.90;;;;;;5094479;28;20036;-82
2022/06/02 05:45:51;;;;;;;10.05;5.50;;;10.90;99.90;;;;;;5093959;28;19919;-82
2022/06/02 05:48:30;;;;;;;7.35;5.15;;;11.00;99.90;;;;;;5093514;28;20039;-83
2022/06/02 05:51:08;;;;;;;6.43;5.07;;;11.10;99.90;;;;;;5076952;28;20369;-83
2022/06/02 05:53:55;;;;;;;7.13;5.80;;;11.20;99.90;;;;;;5076834;28;20063;-81
2022/06/02 05:56:39;;;;;;;6.13;4.75;;;11.30;99.90;;;;;;5076983;28;20073;-82
2022/06/02 05:59:23;;;;;;;7.75;5.60;;;11.50;99.90;;;;;;5077170;28;20483;-82
2022/06/02 06:02:07;;;;;;;8.05;5.03;;;11.50;99.90;;;;;;5095125;28;20568;-81
2022/06/02 06:04:42;;;;;;;6.47;5.10;;;11.60;99.90;;;;;;5076089;28;20058;-82
2022/06/02 06:07:20;;;;;;;13.35;4.72;;;11.60;99.90;;;;;;5076352;28;20032;-82
2022/06/02 06:10:04;;;;;;;5.18;4.28;;;11.70;99.90;;;;;;5093524;28;20569;-82
2022/06/02 06:12:51;;;;;;;7.03;4.32;;;11.80;99.90;;;;;;5076696;28;20542;-82
2022/06/02 06:15:26;;;;;;;7.82;4.57;;;11.90;99.90;;;;;;5076606;28;20390;-82
2022/06/02 06:18:29;;;;;;;6.40;4.35;;;11.90;99.90;;;;;;5094979;28;20024;-82
2022/06/02 06:21:12;;;;;;;7.18;4.07;;;12.00;99.90;;;;;;5076420;28;20039;-83
2022/06/02 06:24:00;;;;;;;6.82;4.20;;;12.10;99.90;;;;;;5093081;28;20040;-82
2022/06/02 06:26:37;;;;;;;10.57;5.00;;;12.10;99.90;;;;;;5092933;28;20048;-82
2022/06/02 06:29:35;;;;;;;6.95;5.45;;;12.20;99.90;;;;;;5076329;28;20043;-82
2022/06/02 06:32:27;;;;;;;6.43;4.50;;;12.30;99.90;;;;;;5093001;28;20424;-82
2022/06/02 06:35:02;;;;;;;5.75;4.28;;;12.30;99.90;;;;;;5093160;28;20028;-82
2022/06/02 06:37:50;;;;;;;9.57;4.47;;;12.40;99.90;;;;;;5092880;28;20081;-82
2022/06/02 06:40:24;;;;;;;7.95;4.68;;;12.50;99.90;;;;;;5092047;28;20502;-82
2022/06/02 06:43:15;;;;;;;4.53;4.07;;;12.60;99.90;;;;;;5093165;28;20031;-82
2022/06/02 06:46:13;;;;;;;7.93;4.55;;;12.60;99.90;;;;;;5075738;28;20467;-82
2022/06/02 06:48:49;;;;;;;6.47;4.57;;;12.70;99.90;;;;;;5058789;28;20364;-81
2022/06/02 06:51:26;;;;;;;5.63;3.92;;;12.80;99.90;;;;;;5092917;28;20032;-82
2022/06/02 06:54:00;;;;;;;5.43;4.18;;;12.80;99.90;;;;;;5092700;28;20368;-81
2022/06/02 06:56:41;;;;;;;5.25;3.55;;;12.80;99.90;;;;;;5075624;28;20039;-82
2022/06/02 06:59:19;;;;;;;4.70;3.50;;;12.90;99.90;;;;;;5092730;28;20042;-82
2022/06/02 07:02:01;;;;;;;8.02;4.25;;;12.90;99.90;;;;;;5093307;28;20028;-82
2022/06/02 07:04:56;;;;;;;4.15;3.20;;;13.00;99.90;;;;;;5092632;28;20077;-82
2022/06/02 07:07:35;;;;;;;6.50;3.80;;;13.00;99.90;;;;;;5092314;28;20031;-82
2022/06/02 07:10:14;;;;;;;7.47;3.30;;;13.10;99.90;;;;;;5092243;28;20046;-82
2022/06/02 07:12:58;;;;;;;4.82;3.42;;;13.10;99.90;;;;;;5093504;28;20441;-82
2022/06/02 07:15:41;;;;;;;3.88;3.05;;;13.20;99.90;;;;;;5074701;28;20127;-82
2022/06/02 07:18:33;;;;;;;5.07;3.28;;;13.30;99.90;;;;;;5075339;28;20028;-82
2022/06/02 07:21:20;;;;;;;3.30;2.78;;;13.90;99.90;;;;;;5092492;28;20507;-82
2022/06/02 07:24:40;;;;;;;3.17;2.45;;;15.20;99.90;;;;;;5075391;28;20540;-82
2022/06/02 07:27:11;;;;;;;5.10;1.92;;;17.50;99.90;;;;;;5014450;28;20037;-83
2022/06/02 07:30:05;;;;;;;3.28;2.38;;;19.40;99.90;;;;;;5072057;28;20137;-83
2022/06/02 07:33:02;;;;;;;2.47;2.20;;;20.40;99.40;;;;;;5075171;28;20032;-82
2022/06/02 07:35:47;;;;;;;3.00;2.20;;;19.80;97.40;;;;;;5091828;28;20032;-82
2022/06/02 07:38:45;;;;;;;5.70;2.75;;;18.10;99.40;;;;;;5075000;28;20491;-83
2022/06/02 07:41:19;;;;;;;8.23;2.72;;;17.00;99.90;;;;;;5071971;28;20036;-82
2022/06/02 07:44:22;;;;;;;4.57;2.80;;;16.30;99.90;;;;;;5074582;28;20038;-82
2022/06/02 07:47:42;;;;;;;3.25;2.58;;;16.00;99.90;;;;;;5073999;28;20032;-82
2022/06/02 07:50:19;;;;;;;4.07;2.60;;;15.70;99.90;;;;;;4997554;28;20040;-82
2022/06/02 07:53:06;;;;;;;2.85;2.17;;;15.60;99.90;;;;;;5079850;28;20048;-83
2022/06/02 07:55:43;;;;;;;3.85;2.22;;;16.00;99.90;;;;;;5090995;28;20035;-82
2022/06/02 07:58:33;;;;;;;4.00;1.75;;;17.80;99.90;;;;;;5091268;28;20487;-82
2022/06/02 08:01:17;;;;;;;3.00;2.28;;;20.30;97.10;;;;;;5091149;28;20120;-83
2022/06/02 08:04:08;;;;;;;3.53;2.00;;;22.40;90.50;;;;;;5074894;28;20032;-82
2022/06/02 08:06:34;;;;;;;;;;;23.70;81.90;;;;;;5091686;28;20035;-82
2022/06/02 08:09:30;;;;;;;2.22;1.40;;;24.20;76.30;;;;;;5074498;28;19915;-82
2022/06/02 08:12:10;;;;;;;2.13;1.65;;;23.80;74.70;;;;;;5092586;28;20043;-84
2022/06/02 08:14:41;;;;;;;4.90;1.57;;;24.80;69.30;;;;;;5074389;28;20075;-82
2022/06/02 08:17:20;;;;;;;4.30;1.83;;;25.20;65.00;;;;;;5074157;28;20055;-82
2022/06/02 08:19:46;;;;;;;4.45;1.75;;;25.90;62.40;;;;;;5074262;28;20043;-83
2022/06/02 08:22:23;;;;;;;2.75;1.50;;;26.40;57.90;;;;;;5074423;28;20386;-83
2022/06/02 08:25:11;;;;;;;3.08;1.70;;;25.90;57.60;;;;;;5074237;28;20063;-82
2022/06/02 08:27:59;;;;;;;2.63;1.40;;;25.40;57.10;;;;;;5073905;28;20024;-83
2022/06/02 08:30:34;;;;;;;3.03;1.23;;;24.90;57.40;;;;;;5089988;28;20035;-83
2022/06/02 08:33:26;;;;;;;3.72;1.58;;;25.10;56.80;;;;;;5074134;28;20027;-82
2022/06/02 08:36:07;;;;;;;3.22;1.35;;;24.60;57.20;;;;;;5073766;28;20115;-83
2022/06/02 08:39:03;;;;;;;1.75;1.52;;;24.40;58.70;;;;;;5090715;28;20031;-83
2022/06/02 08:42:11;;;;;;;5.15;1.10;;;24.50;57.90;;;;;;5074320;28;20039;-83
2022/06/02 08:45:07;;;;;;;3.58;1.40;;;24.20;57.30;;;;;;5036904;28;20036;-83
2022/06/02 08:47:55;;;;;;;1.48;1.13;;;24.50;56.60;;;;;;5090657;28;20059;-83
2022/06/02 08:50:39;;;;;;;2.05;1.67;;;24.40;58.30;;;;;;5090713;28;20024;-83
2022/06/02 08:53:42;;;;;;;3.35;2.05;;;23.50;58.50;;;;;;5073397;28;20119;-83
2022/06/02 08:56:35;;;;;;;3.67;1.50;;;23.40;59.20;;;;;;5090384;28;20535;-82
2022/06/02 08:59:10;;;;;;;1.40;1.30;;;23.70;58.70;;;;;;5073892;28;20032;-82
2022/06/02 09:01:54;;;;;;;5.10;1.63;;;24.20;58.30;;;;;;5073747;28;20039;-82
2022/06/02 09:04:58;;;;;;;4.93;1.58;;;24.60;57.90;;;;;;5076691;28;20036;-83
2022/06/02 09:07:23;;;;;;;3.90;1.58;;;24.40;57.90;;;;;;5093663;28;20075;-83
2022/06/02 09:10:04;;;;;;;1.98;1.40;;;25.00;57.40;;;;;;5094629;28;20079;-83
2022/06/02 09:13:17;;;;;;;2.03;1.20;;;25.20;57.50;;;;;;5077719;28;20503;-83
2022/06/02 09:16:22;;;;;;;1.10;0.93;;;26.10;56.80;;;;;;5070523;28;20036;-83
2022/06/02 09:18:57;;;;;;;3.90;1.10;;;26.40;56.70;;;;;;5077011;28;20086;-83
2022/06/02 09:21:29;;;;;;;4.80;1.60;;;26.00;56.00;;;;;;5094795;28;20036;-83
2022/06/02 09:24:16;;;;;;;1.67;1.33;;;25.70;55.40;;;;;;5094818;28;20040;-83
2022/06/02 09:27:16;;;;;;;1.70;1.27;;;25.50;56.10;;;;;;5094544;28;20032;-83
2022/06/02 09:29:52;;;;;;;6.53;1.60;;;24.70;57.10;;;;;;5094353;28;20483;-83
2022/06/02 09:32:52;;;;;;;2.78;1.33;;;25.10;57.30;;;;;;5077444;28;20286;-83
2022/06/02 09:35:28;;;;;;;3.83;1.33;;;25.20;56.70;;;;;;5093919;28;20028;-83
2022/06/02 09:38:31;;;;;;;2.83;1.30;;;25.30;55.60;;;;;;5093969;28;20286;-83
2022/06/02 09:41:16;;;;;;;3.08;1.23;;;25.30;55.70;;;;;;5093926;28;20391;-82
2022/06/02 09:44:04;;;;;;;3.13;1.83;;;25.90;56.00;;;;;;5077326;28;20028;-83
2022/06/02 09:47:02;;;;;;;2.15;1.02;;;25.50;54.70;;;;;;5094478;28;20087;-80
2022/06/02 09:49:46;;;;;;;1.20;1.10;;;26.00;55.90;;;;;;5050376;28;20544;-81
2022/06/02 09:52:43;;;;;;;3.95;1.58;;;26.00;54.30;;;;;;5077017;28;20128;-81
2022/06/02 09:55:12;;;;;;;6.55;1.58;;;26.10;54.90;;;;;;5094036;28;20036;-81
2022/06/02 09:57:56;;;;;;;3.78;1.55;;;26.20;55.50;;;;;;5094138;28;20032;-81
2022/06/02 10:00:40;;;;;;;3.13;1.30;;;25.90;55.00;;;;;;5077151;28;20032;-80
2022/06/02 10:03:43;;;;;;;3.00;1.52;;;25.90;55.40;;;;;;5094005;28;20028;-80
2022/06/02 10:06:15;;;;;;;2.65;1.48;;;25.70;57.10;;;;;;5076665;28;20152;-80
2022/06/02 10:09:05;;;;;;;3.53;1.60;;;24.90;57.10;;;;;;5076958;28;20035;-81
2022/06/02 10:12:54;;;;;;;4.13;1.50;;;25.20;57.20;;;;;;5077288;28;20085;-80
2022/06/02 10:15:09;;;;;;;3.17;1.45;;;24.40;58.10;;;;;;5092980;28;20032;-80
2022/06/02 10:18:03;;;;;;;3.28;1.40;;;24.50;59.50;;;;;;5076485;28;20032;-81
2022/06/02 10:21:20;;;;;;;3.95;1.50;;;23.70;58.60;;;;;;5076806;28;20024;-82
2022/06/02 10:24:21;;;;;;;4.30;1.63;;;24.20;57.50;;;;;;4999483;28;20414;-83
2022/06/02 10:26:49;;;;;;;1.88;1.25;;;24.80;57.80;;;;;;5015979;28;20033;-80
2022/06/02 10:29:23;;;;;;;2.28;1.60;;;25.30;59.40;;;;;;5078173;28;20089;-82
2022/06/02 10:32:17;;;;;;;3.38;1.40;;;23.60;58.90;;;;;;5093597;28;20036;-82
2022/06/02 10:35:10;;;;;;;2.97;2.22;;;22.60;61.10;;;;;;5076705;28;20551;-82
2022/06/02 10:38:24;;;;;;;4.57;1.55;;;22.50;63.40;;;;;;5093377;28;20491;-83
2022/06/02 10:41:23;;;;;;;1.95;1.73;;;23.30;60.70;;;;;;5032270;28;20052;-80
2022/06/02 10:44:01;;;;;;;5.60;1.77;;;23.70;59.70;;;;;;5076246;28;20038;-80
2022/06/02 10:47:04;;;;;;;5.93;1.50;;;23.80;61.50;;;;;;5092390;28;20028;-81
2022/06/02 10:50:00;;;;;;;5.03;1.77;;;24.10;58.70;;;;;;5092552;28;20059;-80
2022/06/02 10:53:03;;;;;;;3.28;1.30;;;24.40;60.80;;;;;;5091753;28;20487;-82
2022/06/02 10:55:57;;;;;;;2.78;1.17;;;24.30;58.90;;;;;;5093112;28;20032;-82
2022/06/02 10:58:25;;;;;;;1.55;1.10;;;24.50;59.10;;;;;;5092883;28;20430;-82
2022/06/02 11:01:03;;;;;;;1.83;1.27;;;24.70;58.30;;;;;;5092788;28;20493;-83
2022/06/02 11:03:57;;;;;;;6.38;1.38;;;24.90;58.00;;;;;;5092741;28;20128;-82
2022/06/02 11:07:02;;;;;;;3.40;1.38;;;24.50;59.00;;;;;;5092598;28;20028;-84
2022/06/02 11:09:55;;;;;;;5.70;1.95;;;25.00;57.90;;;;;;5031608;28;20044;-83
2022/06/02 11:12:53;;;;;;;3.03;1.80;;;24.80;59.70;;;;;;5092566;28;20028;-82
2022/06/02 11:15:24;;;;;;;2.65;1.40;;;24.50;59.50;;;;;;5075587;28;20036;-82
2022/06/02 11:18:09;;;;;;;3.25;1.77;;;25.00;59.20;;;;;;5092114;28;20032;-83
2022/06/02 11:21:03;;;;;;;3.65;1.40;;;25.60;57.90;;;;;;5075600;28;20118;-83
2022/06/02 11:24:06;;;;;;;3.00;1.67;;;26.10;58.70;;;;;;5075478;28;20090;-83
2022/06/02 11:27:09;;;;;;;2.17;1.58;;;26.80;55.80;;;;;;5090999;28;20081;-83
2022/06/02 11:30:13;;;;;;;5.65;1.55;;;26.00;55.70;;;;;;5075498;28;20028;-81
2022/06/02 11:32:41;;;;;;;2.58;1.40;;;25.00;56.70;;;;;;5051447;28;20059;-81
2022/06/02 11:35:26;;;;;;;8.68;2.00;;;24.60;56.30;;;;;;5075126;28;20039;-81
2022/06/02 11:38:07;;;;;;;3.30;1.40;;;24.70;57.50;;;;;;5092972;28;20032;-81
2022/06/02 11:41:11;;;;;;;3.88;1.67;;;25.00;57.50;;;;;;5091701;28;20039;-81
2022/06/02 11:44:10;;;;;;;4.57;1.50;;;25.00;58.60;;;;;;5092035;28;20047;-81
2022/06/02 11:47:13;;;;;;;4.13;1.50;;;24.10;58.40;;;;;;5074748;28;20371;-81
2022/06/02 11:49:49;;;;;;;1.83;1.10;;;24.30;57.90;;;;;;5074780;28;20546;-81
2022/06/02 11:52:23;;;;;;;3.10;1.52;;;24.00;59.50;;;;;;5091645;28;20032;-80
2022/06/02 11:55:11;;;;;;;4.45;1.58;;;23.30;59.80;;;;;;5075021;28;20039;-81
2022/06/02 11:58:11;;;;;;;3.22;1.58;;;22.80;60.50;;;;;;5074619;28;20036;-80
2022/06/02 12:01:01;;;;;;;3.15;1.40;;;23.10;60.20;;;;;;5091426;28;20483;-81
2022/06/02 12:03:41;;;;;;;1.95;1.50;;;23.70;60.60;;;;;;5091216;28;20028;-81
2022/06/02 12:06:32;;;;;;;5.97;2.00;;;23.40;61.30;;;;;;5091495;28;20750;-80
2022/06/02 12:09:20;;;;;;;3.95;1.73;;;23.40;60.90;;;;;;5091052;28;20429;-83
2022/06/02 12:12:28;;;;;;;1.83;1.40;;;24.00;58.90;;;;;;5074114;28;20040;-82
2022/06/02 12:14:56;;;;;;;1.48;1.38;;;24.40;59.20;;;;;;5074245;28;20127;-81
2022/06/02 12:17:39;;;;;;;3.33;1.65;;;24.00;58.80;;;;;;5073975;28;20513;-81
2022/06/02 12:20:27;;;;;;;3.22;1.42;;;23.70;58.70;;;;;;5091246;28;20384;-81
2022/06/02 12:23:13;;;;;;;1.75;1.55;;;23.50;60.00;;;;;;5091439;28;20056;-81
2022/06/02 12:25:52;;;;;;;5.90;1.50;;;23.70;59.60;;;;;;5091594;28;20067;-81
2022/06/02 12:28:36;;;;;;;8.55;1.48;;;24.20;59.20;;;;;;5091129;28;20028;-81
2022/06/02 12:31:46;;;;;;;2.72;1.27;;;24.70;59.60;;;;;;5091194;28;20031;-81
2022/06/02 12:34:34;;;;;;;4.87;1.60;;;25.30;57.20;;;;;;5030380;28;20040;-82
2022/06/02 12:37:15;;;;;;;4.60;1.45;;;25.40;57.90;;;;;;5073574;28;20274;-82
2022/06/02 12:39:47;;;;;;;1.20;1.10;;;25.30;56.60;;;;;;5073994;28;20357;-81
2022/06/02 12:42:39;;;;;;;3.83;1.38;;;25.00;58.10;;;;;;5091281;28;20032;-82
2022/06/02 12:45:11;;;;;;;1.38;1.25;;;25.00;58.00;;;;;;5091151;28;20443;-82
2022/06/02 12:48:10;;;;;;;5.15;1.42;;;25.00;57.90;;;;;;5073745;28;20024;-82
2022/06/02 12:51:02;;;;;;;2.38;1.13;;;25.00;57.80;;;;;;5073988;28;20131;-83
2022/06/02 12:53:51;;;;;;;2.65;1.20;;;25.30;58.00;;;;;;5073708;28;20028;-82
2022/06/02 12:56:38;;;;;;;2.28;1.17;;;24.80;57.10;;;;;;5090720;28;20059;-82
2022/06/02 12:59:42;;;;;;;2.33;1.40;;;25.00;58.50;;;;;;5074123;28;20036;-82
2022/06/02 13:02:22;;;;;;;8.50;1.33;;;24.50;58.30;;;;;;5090594;28;20420;-81
2022/06/02 13:05:13;;;;;;;3.30;1.42;;;24.10;60.20;;;;;;5107696;28;20729;-81
2022/06/02 13:08:00;;;;;;;2.23;1.37;;;24.10;60.10;;;;;;5090661;28;20063;-82
2022/06/02 13:10:37;;;;;;;3.83;1.42;;;24.30;58.90;;;;;;5090675;28;20467;-82
2022/06/02 13:13:41;;;;;;;1.58;1.20;;;24.50;59.50;;;;;;5073272;28;20556;-81
2022/06/02 13:16:25;;;;;;;1.90;1.33;;;24.20;59.90;;;;;;5073292;28;20111;-82
2022/06/02 13:19:15;;;;;;;1.77;1.58;;;24.20;59.10;;;;;;5073707;28;20020;-83
2022/06/02 13:21:59;;;;;;;1.88;1.45;;;24.30;59.80;;;;;;5073440;28;20127;-82
2022/06/02 13:24:48;;;;;;;2.60;1.45;;;24.40;62.20;;;;;;5073418;28;20498;-82
2022/06/02 13:28:00;;;;;;;3.35;1.52;;;24.40;59.90;;;;;;5089597;28;20097;-82
2022/06/02 13:31:10;;;;;;;1.90;1.70;;;24.00;61.20;;;;;;5090715;28;20032;-81
2022/06/02 13:34:10;;;;;;;3.67;1.33;;;23.70;60.70;;;;;;5036006;28;20043;-82
2022/06/02 13:37:02;;;;;;;1.27;1.15;;;23.70;59.90;;;;;;5073264;28;20028;-82
2022/06/02 13:39:55;;;;;;;1.85;1.40;;;23.70;61.70;;;;;;5073477;28;20038;-82
2022/06/02 13:42:31;;;;;;;1.77;1.30;;;23.00;62.50;;;;;;5073747;28;20373;-82
2022/06/02 13:45:38;;;;;;;1.55;1.10;;;22.80;64.90;;;;;;5090821;28;20039;-82
2022/06/02 13:48:42;;;;;;;4.70;1.35;;;23.60;64.80;;;;;;5073914;28;20039;-82
2022/06/02 13:51:45;;;;;;;6.38;1.52;;;24.10;59.50;;;;;;5095081;28;20028;-88
2022/06/02 13:57:49;;;;;;;7.15;1.30;;;23.90;59.60;;;;;;5032387;28;20040;-82
2022/06/02 14:00:24;;;;;;;2.90;1.30;;;24.30;60.80;;;;;;5077053;28;20127;-82
2022/06/02 14:03:08;;;;;;;4.15;1.27;;;24.70;61.50;;;;;;5094017;28;20123;-82
2022/06/02 14:05:48;;;;;;;7.88;1.70;;;25.30;58.80;;;;;;5076578;28;20036;-82
2022/06/02 14:08:51;;;;;;;1.52;1.08;;;25.50;57.50;;;;;;5076530;28;20035;-81
2022/06/02 14:11:37;;;;;;;2.25;1.30;;;24.40;58.80;;;;;;5093220;28;20749;-82
2022/06/02 14:14:22;;;;;;;1.98;1.23;;;24.10;61.10;;;;;;5076535;28;20031;-82
2022/06/02 14:17:06;;;;;;;3.72;1.27;;;24.60;57.30;;;;;;5076675;28;20394;-81
2022/06/02 14:19:45;;;;;;;2.50;1.40;;;25.70;59.00;;;;;;5093735;28;20761;-82
2022/06/02 14:22:35;;;;;;;5.22;1.30;;;26.00;57.00;;;;;;5093504;28;20387;-83
2022/06/02 14:25:15;;;;;;;2.13;1.15;;;26.20;55.70;;;;;;5093002;28;20036;-82
2022/06/02 14:28:19;;;;;;;13.25;1.75;;;26.50;55.80;;;;;;5092785;28;20028;-82
2022/06/02 14:30:54;;;;;;;6.75;1.30;;;26.70;54.80;;;;;;5076505;28;20563;-82
2022/06/02 14:33:35;;;;;;;2.05;1.25;;;26.10;54.20;;;;;;5076452;28;20060;-82
2022/06/02 14:36:26;;;;;;;2.95;1.58;;;25.90;53.90;;;;;;5076278;28;20030;-82
2022/06/02 14:39:09;;;;;;;4.55;1.38;;;25.90;56.10;;;;;;5093383;28;20031;-83
2022/06/02 14:41:58;;;;;;;2.17;1.10;;;25.90;55.80;;;;;;5076539;28;20048;-82
2022/06/02 14:44:58;;;;;;;2.25;1.33;;;25.20;58.90;;;;;;5076136;28;20028;-82